Hondo, TX

1:50 PM CDT on September 01, 2014 (GMT -0500)
Hondo Municipal | Change Station
CLOSE
Current Station
Airport
Location: Hondo,
Elevation: 928 ft
Nearby Weather Stations

Elev 928 ft 29.36 °N, 99.17 °W | Updated 59 minutes ago

Partly Cloudy
Partly Cloudy
93 °F
Feels Like 98 °F
N
13
Wind Variable Wind from SE
Gusts 21 mph

Today
High -- | Low -- °F
--% Chance of Precip.
Yesterday
High -- | Low -- °F
Precip. -- in
7:13 AM 7:58 PM
Waxing Crescent, 43% visible
Pressure 29.89 in
Visibility 10.0 miles
Clouds Few 4700 ft
Heat Index 98 °F
Dew Point 69 °F
Humidity 45%
Rainfall 0.00 in
Snow Depth Not available.
UV 10 out of 12
Pollen 9.90 out of 12
Ozone Good
PM2.5 Good
Flu Activity Not available.
METAR KHDO 011751Z AUTO 14011G18KT 10SM FEW047 34/21 A2994 RMK AO2 SLP121 T03390206 10339 20250 58009

More Conditions Fewer Conditions

Pressure 29.89 in
Visibility 10.0 miles
Clouds Few 4700 ft
Heat Index 98 °F
Dew Point 69 °F
Humidity 45%
Rainfall 0.00 in
Snow Depth Not available.
UV 10 out of 12
Pollen 9.90 out of 12
Ozone Good
PM2.5 Good
Flu Activity Not available.
METAR KHDO 011751Z AUTO 14011G18KT 10SM FEW047 34/21 A2994 RMK AO2 SLP121 T03390206 10339 20250 58009

More Conditions Fewer Conditions

10-Day Weather Forecast

Almanac

Astronomy

Sep. 01, 2014 Rise Set
Actual Time 7:13 AM CDT 7:58 PM CDT
Civil Twilight 6:49 AM CDT 8:22 PM CDT
Nautical Twilight 6:21 AM CDT 8:50 PM CDT
Astronomical Twilight 5:52 AM CDT 9:19 PM CDT
Moon 1:30 PM CDT No Moon Set
Length of Visible Light 13h 32m
Length of Day
12h 44m
Tomorrow will be 1m 42s shorter.
Waxing Crescent, 43% of the Moon is Illuminated
Today
Waxing Crescent
Sep 2
First Quarter
Sep 8
Full
Sep 15
Last Quarter
Sep 24
New

Today's Extremes

State Highs State Lows

Community

WunderPhotos

Upload Photos

1,749,359 photos uploaded!

Nearby

Air Quality

  Air Quality AQ Index Pollutant
Yesterday Good
PM2.5
Yesterday Good
OZONE
Current Good
PM2.5
Current Good
OZONE
Monday Good
OZONE
Monday Good
PM10
Tuesday Good
OZONE
Tuesday Good
PM10
Wednesday Good
OZONE
Wednesday Good
PM10
Thursday Good
OZONE
Thursday Good
PM10

Snow Depth

Station Depth Elevation
No new snow has been reported.

Earthquake Activity

City Distance Mag. Time & Date
No recent earthquake activity has been reported nearby.
Minimum magnitude displayed is 2.5.

Coastal Water Temperatures

Place Temperature
No Stations Reporting

Nearby Weather Stations